createdAt,value
2024-03-04T00:00:04.359Z,601.00
2024-03-04T00:01:04.374Z,605.00
2024-03-04T00:02:04.393Z,608.00
2024-03-04T00:03:04.396Z,606.00
2024-03-04T00:04:04.528Z,604.00
2024-03-04T00:05:04.407Z,608.00
2024-03-04T00:06:04.429Z,606.00
2024-03-04T00:07:04.516Z,609.00
2024-03-04T00:08:04.491Z,603.00
2024-03-04T00:09:04.529Z,603.00
2024-03-04T00:10:04.540Z,605.00
2024-03-04T00:11:04.597Z,607.00
2024-03-04T00:12:04.591Z,606.00
2024-03-04T00:13:04.760Z,604.00
2024-03-04T00:14:04.684Z,605.00
2024-03-04T00:15:04.684Z,608.00
2024-03-04T00:16:04.734Z,604.00
2024-03-04T00:17:04.712Z,606.00
2024-03-04T00:18:04.811Z,607.00
2024-03-04T00:19:04.833Z,606.00
2024-03-04T00:20:04.781Z,605.00
2024-03-04T00:21:04.783Z,602.00
2024-03-04T00:22:04.804Z,608.00
2024-03-04T00:23:04.761Z,606.00
2024-03-04T00:24:04.809Z,606.00
2024-03-04T00:25:04.816Z,603.00
2024-03-04T00:26:04.807Z,602.00
2024-03-04T00:27:04.852Z,604.00
2024-03-04T00:28:04.942Z,606.00
2024-03-04T00:29:04.930Z,606.00
2024-03-04T00:30:04.903Z,604.00
2024-03-04T00:31:04.947Z,604.00
2024-03-04T00:32:04.913Z,602.00
2024-03-04T00:33:04.959Z,604.00
2024-03-04T00:34:04.957Z,606.00
2024-03-04T00:35:04.947Z,601.00
2024-03-04T00:36:04.984Z,607.00
2024-03-04T00:37:04.986Z,604.00
2024-03-04T00:38:04.983Z,603.00
2024-03-04T00:39:05.043Z,605.00
2024-03-04T00:40:05.043Z,600.00
2024-03-04T00:41:05.081Z,605.00
2024-03-04T00:42:05.104Z,603.00
2024-03-04T00:43:05.238Z,605.00
2024-03-04T00:44:05.186Z,601.00
2024-03-04T00:45:05.134Z,604.00
2024-03-04T00:46:05.194Z,605.00
2024-03-04T00:47:05.244Z,602.00
2024-03-04T00:48:05.267Z,606.00
2024-03-04T00:49:05.247Z,602.00
2024-03-04T00:50:05.282Z,604.00
2024-03-04T00:51:05.290Z,602.00
2024-03-04T00:52:05.428Z,604.00
2024-03-04T00:53:05.332Z,605.00
2024-03-04T00:54:05.379Z,604.00
2024-03-04T00:55:05.410Z,601.00
2024-03-04T00:56:05.421Z,605.00
2024-03-04T00:57:05.438Z,604.00
2024-03-04T00:58:05.499Z,607.00
2024-03-04T00:59:05.500Z,605.00
2024-03-04T01:00:05.485Z,605.00
2024-03-04T01:01:05.595Z,606.00
2024-03-04T01:02:05.634Z,607.00
2024-03-04T01:03:05.497Z,604.00
2024-03-04T01:04:05.582Z,606.00
2024-03-04T01:05:05.545Z,601.00
2024-03-04T01:06:05.569Z,606.00
2024-03-04T01:07:05.645Z,603.00
2024-03-04T01:08:05.685Z,606.00
2024-03-04T01:09:05.576Z,603.00
2024-03-04T01:10:05.592Z,606.00
2024-03-04T01:11:05.620Z,604.00
2024-03-04T01:12:05.589Z,603.00
2024-03-04T01:13:05.690Z,602.00
2024-03-04T01:14:05.687Z,605.00
2024-03-04T01:15:05.610Z,604.00
2024-03-04T01:16:05.730Z,604.00
2024-03-04T01:17:05.670Z,604.00
2024-03-04T01:18:05.718Z,605.00
2024-03-04T01:19:05.771Z,600.00
2024-03-04T01:20:05.751Z,608.00
2024-03-04T01:21:05.704Z,608.00
2024-03-04T01:22:05.749Z,605.00
2024-03-04T01:23:05.750Z,605.00
2024-03-04T01:24:05.744Z,605.00
2024-03-04T01:25:05.745Z,603.00
2024-03-04T01:26:05.762Z,605.00
2024-03-04T01:27:05.764Z,602.00
2024-03-04T01:28:05.794Z,606.00
2024-03-04T01:29:05.887Z,602.00
2024-03-04T01:30:05.751Z,603.00
2024-03-04T01:31:05.787Z,603.00
2024-03-04T01:32:05.802Z,605.00
2024-03-04T01:33:05.855Z,603.00
2024-03-04T01:34:05.935Z,602.00
2024-03-04T01:35:05.818Z,602.00
2024-03-04T01:36:05.841Z,600.00
2024-03-04T01:37:05.844Z,604.00
2024-03-04T01:38:05.846Z,605.00
2024-03-04T01:39:05.842Z,606.00
2024-03-04T01:40:05.868Z,605.00
2024-03-04T01:41:05.875Z,603.00
2024-03-04T01:42:05.880Z,600.00
2024-03-04T01:43:05.917Z,605.00
2024-03-04T01:44:05.921Z,602.00
2024-03-04T01:45:05.910Z,601.00
2024-03-04T01:46:05.981Z,603.00
2024-03-04T01:47:05.920Z,601.00
2024-03-04T01:48:06.018Z,600.00
2024-03-04T01:49:05.955Z,601.00
2024-03-04T01:50:05.917Z,600.00
2024-03-04T01:51:05.923Z,601.00
2024-03-04T01:52:05.981Z,605.00
2024-03-04T01:53:05.973Z,603.00
2024-03-04T01:54:05.948Z,603.00
2024-03-04T01:55:06.066Z,603.00
2024-03-04T01:56:05.985Z,603.00
2024-03-04T01:57:05.987Z,603.00
2024-03-04T01:58:06.061Z,605.00
2024-03-04T01:59:05.994Z,602.00
2024-03-04T02:00:06.001Z,605.00
2024-03-04T02:01:06.090Z,604.00
2024-03-04T02:02:06.004Z,603.00
2024-03-04T02:03:06.016Z,604.00
2024-03-04T02:04:06.048Z,603.00
2024-03-04T02:05:06.038Z,603.00
2024-03-04T02:06:06.052Z,602.00
2024-03-04T02:07:06.101Z,606.00
2024-03-04T02:08:06.035Z,607.00
2024-03-04T02:09:06.061Z,603.00
2024-03-04T02:10:06.078Z,602.00
2024-03-04T02:11:06.097Z,605.00
2024-03-04T02:12:06.065Z,603.00
2024-03-04T02:13:06.247Z,605.00
2024-03-04T02:14:06.075Z,605.00
2024-03-04T02:15:06.085Z,604.00
2024-03-04T02:16:06.136Z,606.00
2024-03-04T02:17:06.125Z,603.00
2024-03-04T02:18:06.182Z,600.00
2024-03-04T02:19:06.180Z,602.00
2024-03-04T02:20:06.131Z,602.00
2024-03-04T02:21:06.164Z,602.00
2024-03-04T02:22:06.177Z,605.00
2024-03-04T02:23:06.112Z,603.00
2024-03-04T02:24:06.144Z,609.00
2024-03-04T02:25:06.209Z,602.00
2024-03-04T02:26:06.180Z,603.00
2024-03-04T02:27:06.177Z,606.00
2024-03-04T02:28:06.314Z,604.00
2024-03-04T02:29:06.218Z,605.00
2024-03-04T02:30:06.268Z,602.00
2024-03-04T02:31:06.390Z,604.00
2024-03-04T02:32:06.281Z,603.00
2024-03-04T02:33:06.242Z,600.00
2024-03-04T02:34:06.490Z,604.00
2024-03-04T02:35:06.282Z,602.00
2024-03-04T02:36:06.305Z,602.00
2024-03-04T02:37:06.347Z,604.00
2024-03-04T02:38:06.340Z,605.00
2024-03-04T02:39:06.336Z,606.00
2024-03-04T02:40:06.349Z,601.00
2024-03-04T02:41:06.377Z,605.00
2024-03-04T02:42:06.375Z,608.00
2024-03-04T02:43:06.371Z,601.00
2024-03-04T02:44:06.375Z,600.00
2024-03-04T02:45:06.402Z,604.00
2024-03-04T02:46:06.474Z,602.00
2024-03-04T02:47:06.423Z,603.00
2024-03-04T02:48:06.528Z,602.00
2024-03-04T02:49:06.448Z,605.00
2024-03-04T02:50:06.546Z,605.00
2024-03-04T02:51:06.471Z,605.00
2024-03-04T02:52:06.548Z,602.00
2024-03-04T02:53:06.483Z,600.00
2024-03-04T02:54:06.498Z,604.00
2024-03-04T02:55:06.599Z,603.00
2024-03-04T02:56:06.510Z,603.00
2024-03-04T02:57:06.488Z,601.00
2024-03-04T02:58:06.562Z,605.00
2024-03-04T02:59:06.560Z,605.00
2024-03-04T03:00:06.533Z,602.00
2024-03-04T03:01:06.661Z,604.00
2024-03-04T03:02:06.703Z,603.00
2024-03-04T03:03:06.588Z,605.00
2024-03-04T03:04:06.662Z,604.00
2024-03-04T03:05:06.659Z,602.00
2024-03-04T03:06:06.643Z,603.00
2024-03-04T03:07:06.669Z,605.00
2024-03-04T03:08:06.628Z,607.00
2024-03-04T03:09:06.669Z,603.00
2024-03-04T03:10:07.063Z,603.00
2024-03-04T03:11:06.703Z,609.00
2024-03-04T03:12:06.708Z,602.00
2024-03-04T03:13:06.713Z,604.00
2024-03-04T03:14:06.715Z,605.00
2024-03-04T03:15:06.718Z,600.00
2024-03-04T03:16:06.802Z,602.00
2024-03-04T03:17:06.799Z,604.00
2024-03-04T03:18:06.892Z,607.00
2024-03-04T03:19:06.902Z,600.00
2024-03-04T03:20:06.854Z,602.00
2024-03-04T03:21:06.809Z,604.00
2024-03-04T03:22:06.878Z,603.00
2024-03-04T03:23:06.867Z,601.00
2024-03-04T03:24:06.872Z,604.00
2024-03-04T03:25:06.919Z,606.00
2024-03-04T03:26:06.901Z,604.00
2024-03-04T03:27:06.927Z,602.00
2024-03-04T03:28:06.931Z,606.00
2024-03-04T03:29:06.932Z,602.00
2024-03-04T03:30:06.936Z,601.00
2024-03-04T03:31:07.008Z,601.00
2024-03-04T03:32:06.948Z,604.00
2024-03-04T03:33:06.974Z,605.00
2024-03-04T03:34:07.025Z,605.00
2024-03-04T03:35:07.053Z,603.00
2024-03-04T03:36:07.043Z,601.00
2024-03-04T03:37:07.051Z,603.00
2024-03-04T03:38:07.066Z,601.00
2024-03-04T03:39:07.083Z,605.00
2024-03-04T03:40:07.179Z,603.00
2024-03-04T03:41:07.108Z,603.00
2024-03-04T03:42:07.107Z,602.00
2024-03-04T03:43:07.133Z,605.00
2024-03-04T03:44:07.108Z,606.00
2024-03-04T03:45:07.150Z,604.00
2024-03-04T03:46:07.216Z,603.00
2024-03-04T03:47:07.166Z,604.00
2024-03-04T03:48:07.231Z,604.00
2024-03-04T03:49:07.342Z,604.00
2024-03-04T03:50:07.242Z,603.00
2024-03-04T03:51:07.264Z,600.00
2024-03-04T03:52:07.285Z,604.00
2024-03-04T03:53:07.266Z,601.00
2024-03-04T03:54:07.303Z,602.00
2024-03-04T03:55:07.361Z,607.00
2024-03-04T03:56:07.362Z,604.00
2024-03-04T03:57:07.337Z,603.00
2024-03-04T03:58:07.383Z,605.00
2024-03-04T03:59:07.369Z,605.00
2024-03-04T04:00:07.387Z,603.00
2024-03-04T04:01:07.526Z,604.00
2024-03-04T04:02:07.461Z,602.00
2024-03-04T04:03:07.449Z,603.00
2024-03-04T04:04:07.435Z,606.00
2024-03-04T04:05:07.426Z,605.00
2024-03-04T04:06:07.440Z,605.00
2024-03-04T04:07:07.492Z,605.00
2024-03-04T04:08:07.489Z,601.00
2024-03-04T04:09:07.487Z,604.00
2024-03-04T04:10:07.562Z,602.00
2024-03-04T04:11:07.666Z,603.00
2024-03-04T04:12:07.521Z,606.00
2024-03-04T04:13:07.567Z,606.00
2024-03-04T04:14:07.573Z,604.00
2024-03-04T04:15:07.619Z,603.00
2024-03-04T04:16:07.601Z,605.00
2024-03-04T04:17:07.624Z,606.00
2024-03-04T04:18:07.639Z,606.00
2024-03-04T04:19:07.652Z,605.00
2024-03-04T04:20:07.607Z,602.00
2024-03-04T04:21:07.622Z,602.00
2024-03-04T04:22:07.671Z,606.00
2024-03-04T04:23:07.633Z,605.00
2024-03-04T04:24:07.675Z,601.00
2024-03-04T04:25:07.725Z,603.00
2024-03-04T04:26:07.665Z,604.00
2024-03-04T04:27:07.665Z,604.00
2024-03-04T04:28:07.783Z,604.00
2024-03-04T04:29:07.695Z,602.00
2024-03-04T04:30:07.742Z,603.00
2024-03-04T04:31:07.799Z,604.00
2024-03-04T04:32:07.702Z,604.00
2024-03-04T04:33:07.850Z,605.00
2024-03-04T04:34:07.793Z,603.00
2024-03-04T04:35:07.772Z,604.00
2024-03-04T04:36:07.785Z,606.00
2024-03-04T04:37:07.843Z,605.00
2024-03-04T04:38:07.801Z,606.00
2024-03-04T04:39:15.082Z,600.00
2024-03-04T04:40:15.105Z,600.00
2024-03-04T04:41:15.101Z,600.00
2024-03-04T04:42:15.084Z,600.00
2024-03-04T04:43:15.090Z,600.00
2024-03-04T04:44:15.078Z,602.00
2024-03-04T04:45:15.118Z,601.00
2024-03-04T04:46:15.112Z,605.00
2024-03-04T04:47:15.085Z,602.00
2024-03-04T04:48:15.098Z,602.00
2024-03-04T04:49:16.534Z,601.00
2024-03-04T04:50:15.115Z,602.00
2024-03-04T04:51:15.110Z,601.00
2024-03-04T04:52:15.124Z,601.00
2024-03-04T04:53:15.075Z,601.00
2024-03-04T04:54:15.074Z,603.00
2024-03-04T04:55:18.094Z,601.00
2024-03-04T04:56:15.074Z,601.00
2024-03-04T04:57:15.089Z,601.00
2024-03-04T04:58:15.128Z,601.00
2024-03-04T04:59:15.101Z,601.00
2024-03-04T05:00:15.117Z,602.00
2024-03-04T05:01:15.116Z,601.00
2024-03-04T05:02:15.127Z,602.00
2024-03-04T05:03:28.161Z,605.00
2024-03-04T05:04:32.126Z,605.00
2024-03-04T05:05:16.144Z,605.00
2024-03-04T05:06:15.149Z,606.00
2024-03-04T05:07:15.141Z,605.00
2024-03-04T05:08:15.123Z,607.00
2024-03-04T05:09:15.131Z,606.00
2024-03-04T05:10:15.211Z,606.00
2024-03-04T05:11:15.137Z,610.00
2024-03-04T05:12:15.102Z,609.00
2024-03-04T05:13:15.092Z,607.00
2024-03-04T05:14:15.099Z,605.00
2024-03-04T05:15:15.116Z,605.00
2024-03-04T05:16:15.119Z,608.00
2024-03-04T05:17:15.126Z,605.00
2024-03-04T05:18:15.130Z,604.00
2024-03-04T05:19:15.137Z,606.00
2024-03-04T05:20:15.133Z,607.00
2024-03-04T05:21:15.098Z,604.00
2024-03-04T05:22:15.218Z,605.00
2024-03-04T05:23:15.116Z,607.00
2024-03-04T05:24:15.113Z,608.00
2024-03-04T05:25:15.199Z,604.00
2024-03-04T05:26:15.138Z,606.00
2024-03-04T05:27:15.147Z,605.00
2024-03-04T05:28:15.152Z,606.00
2024-03-04T05:29:15.186Z,604.00
2024-03-04T05:30:15.164Z,606.00
2024-03-04T05:31:15.201Z,607.00
2024-03-04T05:32:15.164Z,609.00
2024-03-04T05:33:15.256Z,604.00
2024-03-04T05:34:15.182Z,605.00
2024-03-04T05:35:15.125Z,610.00
2024-03-04T05:36:15.142Z,603.00
2024-03-04T05:37:15.202Z,608.00
2024-03-04T05:38:15.162Z,607.00
2024-03-04T05:39:15.168Z,606.00
2024-03-04T05:40:15.201Z,606.00
2024-03-04T05:41:15.138Z,608.00
2024-03-04T05:42:15.166Z,605.00
2024-03-04T05:43:15.192Z,607.00
2024-03-04T05:44:15.154Z,608.00
2024-03-04T05:45:15.170Z,607.00
2024-03-04T05:46:15.185Z,605.00
2024-03-04T05:47:15.177Z,607.00
2024-03-04T05:48:15.193Z,604.00
2024-03-04T05:49:15.264Z,608.00
2024-03-04T05:50:15.201Z,609.00
2024-03-04T05:51:15.138Z,607.00
2024-03-04T05:52:15.175Z,607.00
2024-03-04T05:53:15.151Z,606.00
2024-03-04T05:54:15.154Z,608.00
2024-03-04T05:55:15.190Z,605.00
2024-03-04T05:56:15.162Z,607.00
2024-03-04T05:57:15.190Z,607.00
2024-03-04T05:58:15.247Z,606.00
2024-03-04T05:59:15.145Z,604.00
2024-03-04T06:00:15.816Z,605.00
2024-03-04T06:01:15.255Z,610.00
2024-03-04T06:02:15.181Z,608.00
2024-03-04T06:03:15.181Z,607.00
2024-03-04T06:04:15.214Z,609.00
2024-03-04T06:05:15.206Z,609.00
2024-03-04T06:06:15.221Z,607.00
2024-03-04T06:07:15.198Z,610.00
2024-03-04T06:08:15.211Z,609.00
2024-03-04T06:09:15.158Z,609.00
2024-03-04T06:10:15.232Z,607.00
2024-03-04T06:11:15.201Z,609.00
2024-03-04T06:12:15.194Z,611.00
2024-03-04T06:13:15.207Z,609.00
2024-03-04T06:14:15.202Z,608.00
2024-03-04T06:15:15.224Z,608.00
2024-03-04T06:16:15.170Z,611.00
2024-03-04T06:17:15.588Z,609.00
2024-03-04T06:18:15.172Z,608.00
2024-03-04T06:19:15.211Z,610.00
2024-03-04T06:20:15.214Z,613.00
2024-03-04T06:21:15.203Z,608.00
2024-03-04T06:22:15.250Z,608.00
2024-03-04T06:23:15.268Z,607.00
2024-03-04T06:24:15.213Z,609.00
2024-03-04T06:25:15.221Z,607.00
2024-03-04T06:26:15.302Z,611.00
2024-03-04T06:27:15.203Z,610.00
2024-03-04T06:28:15.242Z,612.00
2024-03-04T06:29:15.206Z,614.00
2024-03-04T06:30:15.212Z,610.00
2024-03-04T06:31:15.232Z,612.00
2024-03-04T06:32:15.216Z,611.00
2024-03-04T06:33:15.227Z,613.00
2024-03-04T06:34:19.730Z,613.00
2024-03-04T06:35:16.457Z,613.00
2024-03-04T06:36:15.208Z,609.00
2024-03-04T06:37:15.251Z,613.00
2024-03-04T06:38:15.214Z,611.00
2024-03-04T06:39:15.219Z,611.00
2024-03-04T06:40:15.272Z,610.00
2024-03-04T06:41:15.251Z,612.00
2024-03-04T06:42:15.237Z,611.00
2024-03-04T06:43:15.232Z,609.00
2024-03-04T06:44:15.214Z,611.00
2024-03-04T06:45:15.236Z,612.00
2024-03-04T06:46:15.242Z,614.00
2024-03-04T06:47:15.211Z,613.00
2024-03-04T06:48:15.272Z,614.00
2024-03-04T06:49:15.269Z,618.00
2024-03-04T06:50:15.263Z,624.00
2024-03-04T06:51:15.203Z,627.00
2024-03-04T06:52:15.279Z,638.00
2024-03-04T06:53:15.231Z,649.00
2024-03-04T06:54:15.215Z,659.00
2024-03-04T06:55:15.259Z,685.00
2024-03-04T06:56:15.285Z,724.00
2024-03-04T06:57:15.388Z,739.00
2024-03-04T06:58:15.403Z,738.00
2024-03-04T06:59:15.411Z,752.00
2024-03-04T07:00:15.403Z,758.00
2024-03-04T07:01:15.528Z,749.00
2024-03-04T07:02:15.548Z,740.00
2024-03-04T07:03:15.537Z,735.00
2024-03-04T07:04:15.574Z,713.00
2024-03-04T07:05:15.588Z,691.00
2024-03-04T07:06:15.624Z,675.00
2024-03-04T07:07:15.689Z,658.00
2024-03-04T07:08:15.734Z,653.00
2024-03-04T07:09:15.685Z,647.00
2024-03-04T07:10:15.742Z,642.00
2024-03-04T07:11:15.749Z,641.00
2024-03-04T07:12:15.778Z,637.00
2024-03-04T07:13:15.843Z,632.00
2024-03-04T07:14:15.859Z,634.00
2024-03-04T07:15:15.950Z,636.00
2024-03-04T07:16:16.063Z,639.00
2024-03-04T07:17:16.063Z,635.00
2024-03-04T07:18:16.125Z,642.00
2024-03-04T07:19:16.170Z,644.00
2024-03-04T07:20:16.216Z,644.00
2024-03-04T07:21:16.244Z,649.00
2024-03-04T07:22:16.313Z,651.00
2024-03-04T07:23:16.282Z,659.00
2024-03-04T07:24:16.319Z,663.00
2024-03-04T07:25:16.424Z,665.00
2024-03-04T07:26:18.861Z,675.00
2024-03-04T07:27:16.373Z,675.00
2024-03-04T07:28:16.410Z,679.00
2024-03-04T07:29:23.653Z,688.00
2024-03-04T07:30:17.389Z,677.00
2024-03-04T07:31:16.458Z,684.00
2024-03-04T07:32:16.354Z,704.00
2024-03-04T07:33:16.396Z,734.00
2024-03-04T07:34:16.473Z,786.00
2024-03-04T07:35:16.364Z,801.00
2024-03-04T07:36:17.259Z,816.00
2024-03-04T07:37:16.444Z,840.00
2024-03-04T07:38:16.357Z,843.00
2024-03-04T07:39:16.368Z,863.00
2024-03-04T07:40:16.458Z,882.00
2024-03-04T07:41:16.348Z,905.00
2024-03-04T07:42:17.996Z,920.00
2024-03-04T07:43:16.369Z,936.00
2024-03-04T07:44:17.629Z,955.00
2024-03-04T07:45:16.541Z,979.00
2024-03-04T07:46:16.625Z,987.00
2024-03-04T07:47:16.658Z,1006.00
2024-03-04T07:48:16.741Z,1031.00
2024-03-04T07:49:16.835Z,1031.00
2024-03-04T07:50:16.849Z,1047.00
2024-03-04T07:51:16.955Z,1063.00
2024-03-04T07:52:16.997Z,1074.00
2024-03-04T07:53:16.992Z,1076.00
2024-03-04T07:54:17.079Z,1080.00
2024-03-04T07:55:17.169Z,1079.00
2024-03-04T07:56:17.260Z,1087.00
2024-03-04T07:57:20.689Z,1086.00
2024-03-04T07:58:18.347Z,1086.00
2024-03-04T07:59:17.328Z,1088.00
2024-03-04T08:00:17.305Z,1089.00
2024-03-04T08:01:17.375Z,1100.00
2024-03-04T08:02:17.341Z,1115.00
2024-03-04T08:03:17.315Z,1127.00
2024-03-04T08:04:17.391Z,1120.00
2024-03-04T08:05:17.323Z,1130.00
2024-03-04T08:06:17.386Z,1145.00
2024-03-04T08:07:17.475Z,1165.00
2024-03-04T08:08:20.975Z,1179.00
2024-03-04T08:09:18.485Z,1179.00
2024-03-04T08:10:17.528Z,1182.00
2024-03-04T08:11:17.527Z,1191.00
2024-03-04T08:12:17.476Z,1204.00
2024-03-04T08:13:17.522Z,1233.00
2024-03-04T08:14:17.493Z,1244.00
2024-03-04T08:15:17.520Z,1255.00
2024-03-04T08:16:17.514Z,1259.00
2024-03-04T08:17:17.520Z,1260.00
2024-03-04T08:18:17.563Z,1277.00
2024-03-04T08:19:17.615Z,1287.00
2024-03-04T08:20:27.966Z,1291.00
2024-03-04T08:21:18.596Z,1291.00
2024-03-04T08:22:17.647Z,1296.00
2024-03-04T08:23:17.592Z,1304.00
2024-03-04T08:24:17.591Z,1323.00
2024-03-04T08:25:18.360Z,1346.00
2024-03-04T08:26:17.614Z,1348.00
2024-03-04T08:27:17.627Z,1361.00
2024-03-04T08:28:24.384Z,1367.00
2024-03-04T08:29:20.381Z,1367.00
2024-03-04T08:30:17.600Z,1370.00
2024-03-04T08:31:17.656Z,1375.00
2024-03-04T08:32:17.606Z,1383.00
2024-03-04T08:33:17.623Z,1405.00
2024-03-04T08:34:17.682Z,1400.00
2024-03-04T08:35:17.646Z,1407.00
2024-03-04T08:36:17.638Z,1403.00
2024-03-04T08:37:17.639Z,1424.00
2024-03-04T08:38:17.637Z,1420.00
2024-03-04T08:39:17.712Z,1428.00
2024-03-04T08:40:17.631Z,1434.00
2024-03-04T08:41:17.636Z,1441.00
2024-03-04T08:42:17.643Z,1446.00
2024-03-04T08:43:17.640Z,1463.00
2024-03-04T08:44:17.677Z,1457.00
2024-03-04T08:45:17.677Z,1473.00
2024-03-04T08:46:17.717Z,1493.00
2024-03-04T08:47:17.660Z,1500.00
2024-03-04T08:48:17.770Z,1513.00
2024-03-04T08:49:17.666Z,1522.00
2024-03-04T08:50:17.655Z,1517.00
2024-03-04T08:51:17.685Z,1530.00
2024-03-04T08:52:17.690Z,1519.00
2024-03-04T08:53:17.676Z,1526.00
2024-03-04T08:54:17.630Z,1532.00
2024-03-04T08:55:17.658Z,1551.00
2024-03-04T08:56:17.677Z,1548.00
2024-03-04T08:57:17.679Z,1561.00
2024-03-04T08:58:17.731Z,1569.00
2024-03-04T08:59:17.659Z,1571.00
2024-03-04T09:00:17.701Z,1581.00
2024-03-04T09:01:17.806Z,1590.00
2024-03-04T09:02:17.703Z,1596.00
2024-03-04T09:03:17.672Z,1602.00
2024-03-04T09:04:17.701Z,1629.00
2024-03-04T09:05:17.701Z,1628.00
2024-03-04T09:06:18.133Z,1652.00
2024-03-04T09:07:17.823Z,1642.00
2024-03-04T09:08:17.676Z,1654.00
2024-03-04T09:09:17.679Z,1658.00
2024-03-04T09:10:17.690Z,1667.00
2024-03-04T09:11:17.735Z,1673.00
2024-03-04T09:12:17.726Z,1650.00
2024-03-04T09:13:17.688Z,1661.00
2024-03-04T09:14:17.652Z,1616.00
2024-03-04T09:15:17.691Z,1603.00
2024-03-04T09:16:17.713Z,1584.00
2024-03-04T09:17:17.704Z,1561.00
2024-03-04T09:18:17.659Z,1536.00
2024-03-04T09:19:17.739Z,1495.00
2024-03-04T09:20:17.679Z,1487.00
2024-03-04T09:21:17.727Z,1443.00
2024-03-04T09:22:17.722Z,1435.00
2024-03-04T09:23:17.702Z,1398.00
2024-03-04T09:24:17.721Z,1371.00
2024-03-04T09:25:17.727Z,1349.00
2024-03-04T09:26:18.288Z,1338.00
2024-03-04T09:27:17.701Z,1315.00
2024-03-04T09:28:17.729Z,1297.00
2024-03-04T09:29:17.687Z,1267.00
2024-03-04T09:30:17.700Z,1186.00
2024-03-04T09:31:17.760Z,1124.00
2024-03-04T09:32:17.690Z,1007.00
2024-03-04T09:33:17.757Z,931.00
2024-03-04T09:34:17.755Z,832.00
2024-03-04T09:35:17.875Z,752.00
2024-03-04T09:36:17.720Z,696.00
2024-03-04T09:37:17.745Z,651.00
2024-03-04T09:38:17.862Z,630.00
2024-03-04T09:39:17.820Z,605.00
2024-03-04T09:40:17.963Z,600.00
2024-03-04T09:41:17.946Z,600.00
2024-03-04T09:42:17.964Z,600.00
2024-03-04T09:43:18.123Z,600.00
2024-03-04T09:44:17.984Z,600.00
2024-03-04T09:45:18.806Z,599.00
2024-03-04T09:46:18.106Z,600.00
2024-03-04T09:47:18.012Z,597.00
2024-03-04T09:48:18.146Z,600.00
2024-03-04T09:49:18.143Z,600.00
2024-03-04T09:50:18.137Z,601.00
2024-03-04T09:51:18.260Z,600.00
2024-03-04T09:52:18.256Z,599.00
2024-03-04T09:53:18.295Z,604.00
2024-03-04T09:54:18.386Z,597.00
2024-03-04T09:55:18.427Z,600.00
2024-03-04T09:56:18.476Z,600.00
2024-03-04T09:57:18.447Z,601.00
2024-03-04T09:58:18.476Z,598.00
2024-03-04T09:59:18.429Z,600.00
2024-03-04T10:00:18.421Z,600.00
2024-03-04T10:01:18.571Z,600.00
2024-03-04T10:02:18.556Z,600.00
2024-03-04T10:03:18.540Z,600.00
2024-03-04T10:04:18.554Z,600.00
2024-03-04T10:05:18.587Z,600.00
2024-03-04T10:06:18.638Z,600.00
2024-03-04T10:07:18.734Z,600.00
2024-03-04T10:08:18.767Z,600.00
2024-03-04T10:09:19.240Z,600.00
2024-03-04T10:10:18.953Z,601.00
2024-03-04T10:11:18.965Z,599.00
2024-03-04T10:12:18.986Z,603.00
2024-03-04T10:13:19.087Z,600.00
2024-03-04T10:14:19.142Z,600.00
2024-03-04T10:15:19.230Z,600.00
2024-03-04T10:16:19.361Z,605.00
2024-03-04T10:17:19.347Z,601.00
2024-03-04T10:18:19.397Z,600.00
2024-03-04T10:19:19.580Z,604.00
2024-03-04T10:20:19.509Z,600.00
2024-03-04T10:21:19.549Z,599.00
2024-03-04T10:22:19.616Z,600.00
2024-03-04T10:23:19.523Z,600.00
2024-03-04T10:24:19.591Z,600.00
2024-03-04T10:25:19.751Z,601.00
2024-03-04T10:26:19.582Z,601.00
2024-03-04T10:27:19.646Z,602.00
2024-03-04T10:28:19.742Z,600.00
2024-03-04T10:29:20.300Z,601.00
2024-03-04T10:30:22.691Z,600.00
2024-03-04T10:31:20.865Z,597.00
2024-03-04T10:32:19.937Z,587.00
2024-03-04T10:33:19.927Z,598.00
2024-03-04T10:34:19.866Z,601.00
2024-03-04T10:35:19.868Z,602.00
2024-03-04T10:36:19.869Z,603.00
2024-03-04T10:37:19.905Z,608.00
2024-03-04T10:38:19.837Z,606.00
2024-03-04T10:39:19.910Z,612.00
2024-03-04T10:40:19.883Z,623.00
2024-03-04T10:41:19.926Z,639.00
2024-03-04T10:42:19.976Z,648.00
2024-03-04T10:43:20.065Z,646.00
2024-03-04T10:44:20.104Z,644.00
2024-03-04T10:45:20.131Z,652.00
2024-03-04T10:46:20.210Z,682.00
2024-03-04T10:47:20.185Z,730.00
2024-03-04T10:48:20.201Z,774.00
2024-03-04T10:49:20.239Z,816.00
2024-03-04T10:50:20.268Z,880.00
2024-03-04T10:51:20.294Z,973.00
2024-03-04T10:52:20.315Z,1055.00
2024-03-04T10:53:20.322Z,1114.00
2024-03-04T10:54:20.346Z,1178.00
2024-03-04T10:55:20.403Z,1248.00
2024-03-04T10:56:20.348Z,1317.00
2024-03-04T10:57:20.413Z,1376.00
2024-03-04T10:58:20.549Z,1414.00
2024-03-04T10:59:20.672Z,1429.00
2024-03-04T11:00:20.608Z,1434.00
2024-03-04T11:01:20.796Z,1445.00
2024-03-04T11:02:20.758Z,1473.00
2024-03-04T11:03:20.758Z,1481.00
2024-03-04T11:04:20.834Z,1479.00
2024-03-04T11:05:20.880Z,1501.00
2024-03-04T11:06:20.916Z,1507.00
2024-03-04T11:07:20.982Z,1512.00
2024-03-04T11:08:21.004Z,1513.00
2024-03-04T11:09:21.068Z,1512.00
2024-03-04T11:10:21.145Z,1537.00
2024-03-04T11:11:21.132Z,1515.00
2024-03-04T11:12:21.155Z,1541.00
2024-03-04T11:13:21.187Z,1571.00
2024-03-04T11:14:21.188Z,1594.00
2024-03-04T11:15:21.258Z,1640.00
2024-03-04T11:16:21.485Z,1660.00
2024-03-04T11:17:21.289Z,1693.00
2024-03-04T11:18:21.236Z,1721.00
2024-03-04T11:19:21.352Z,1738.00
2024-03-04T11:20:21.360Z,1771.00
2024-03-04T11:21:21.405Z,1802.00
2024-03-04T11:22:21.560Z,1843.00
2024-03-04T11:23:21.579Z,1873.00
2024-03-04T11:24:21.622Z,1911.00
2024-03-04T11:25:21.786Z,1931.00
2024-03-04T11:26:21.736Z,1974.00
2024-03-04T11:27:21.765Z,2012.00
2024-03-04T11:28:21.870Z,2049.00
2024-03-04T11:29:21.822Z,2078.00
2024-03-04T11:30:21.853Z,2112.00
2024-03-04T11:31:21.902Z,2153.00
2024-03-04T11:32:21.923Z,2194.00
2024-03-04T11:33:22.872Z,2226.00
2024-03-04T11:34:21.955Z,2262.00
2024-03-04T11:35:22.148Z,2300.00
2024-03-04T11:36:22.015Z,2331.00
2024-03-04T11:37:22.023Z,2359.00
2024-03-04T11:38:21.958Z,2399.00
2024-03-04T11:39:22.060Z,2425.00
2024-03-04T11:40:22.030Z,2444.00
2024-03-04T11:41:22.164Z,2485.00
2024-03-04T11:42:22.084Z,2513.00
2024-03-04T11:43:22.180Z,2544.00
2024-03-04T11:44:22.179Z,2569.00
2024-03-04T11:45:23.858Z,2601.00
2024-03-04T11:46:22.512Z,2628.00
2024-03-04T11:47:22.326Z,2645.00
2024-03-04T11:48:22.345Z,2610.00
2024-03-04T11:49:22.369Z,2568.00
2024-03-04T11:50:22.401Z,2534.00
2024-03-04T11:51:22.435Z,2479.00
2024-03-04T11:52:22.421Z,2408.00
2024-03-04T11:53:22.452Z,2354.00
2024-03-04T11:54:22.498Z,2306.00
2024-03-04T11:55:22.552Z,2268.00
2024-03-04T11:56:22.540Z,2221.00
2024-03-04T11:57:22.555Z,2185.00
2024-03-04T11:58:22.677Z,2131.00
2024-03-04T11:59:22.668Z,2080.00
2024-03-04T12:00:22.707Z,2036.00
2024-03-04T12:01:23.375Z,1988.00
2024-03-04T12:02:23.036Z,1912.00
2024-03-04T12:03:22.784Z,1903.00
2024-03-04T12:04:22.864Z,1888.00
2024-03-04T12:05:22.931Z,1868.00
2024-03-04T12:06:23.000Z,1875.00
2024-03-04T12:07:24.621Z,1879.00
2024-03-04T12:08:36.675Z,1874.00
2024-03-04T12:09:44.128Z,1875.00
2024-03-04T12:10:24.053Z,1876.00
2024-03-04T12:11:23.146Z,1887.00
2024-03-04T12:12:23.289Z,1917.00
2024-03-04T12:13:23.090Z,1962.00
2024-03-04T12:14:22.966Z,2051.00
2024-03-04T12:15:22.940Z,2087.00
2024-03-04T12:16:23.133Z,2108.00
2024-03-04T12:17:23.064Z,2133.00
2024-03-04T12:18:23.041Z,2163.00
2024-03-04T12:19:23.086Z,2196.00
2024-03-04T12:20:22.945Z,2225.00
2024-03-04T12:21:23.022Z,2260.00
2024-03-04T12:22:22.956Z,2297.00